createdAt,value
2023-06-29T00:00:26.781Z,40.08
2023-06-29T00:01:26.812Z,37.97
2023-06-29T00:02:26.832Z,40.62
2023-06-29T00:03:26.828Z,39.04
2023-06-29T00:04:26.764Z,53.34
2023-06-29T00:05:26.752Z,37.32
2023-06-29T00:06:26.747Z,38.18
2023-06-29T00:07:26.839Z,54.63
2023-06-29T00:08:26.729Z,46.86
2023-06-29T00:09:26.755Z,41.89
2023-06-29T00:10:26.739Z,40.73
2023-06-29T00:11:26.738Z,47.13
2023-06-29T00:12:26.723Z,44.32
2023-06-29T00:13:26.695Z,54.98
2023-06-29T00:14:26.683Z,44.36
2023-06-29T00:15:26.680Z,40.23
2023-06-29T00:16:26.726Z,39.50
2023-06-29T00:17:26.672Z,47.53
2023-06-29T00:18:26.655Z,43.22
2023-06-29T00:19:26.675Z,43.26
2023-06-29T00:20:26.646Z,42.76
2023-06-29T00:21:26.662Z,52.48
2023-06-29T00:22:26.640Z,38.22
2023-06-29T00:23:26.616Z,41.58
2023-06-29T00:24:26.612Z,41.26
2023-06-29T00:25:26.635Z,39.74
2023-06-29T00:26:26.630Z,55.89
2023-06-29T00:27:26.619Z,42.29
2023-06-29T00:28:26.612Z,39.21
2023-06-29T00:29:26.573Z,40.04
2023-06-29T00:30:26.597Z,47.73
2023-06-29T00:31:26.579Z,44.29
2023-06-29T00:32:26.604Z,42.90
2023-06-29T00:33:26.553Z,54.79
2023-06-29T00:34:26.547Z,44.68
2023-06-29T00:35:26.560Z,37.99
2023-06-29T00:36:26.529Z,38.29
2023-06-29T00:37:26.512Z,57.06
2023-06-29T00:38:26.514Z,46.61
2023-06-29T00:39:26.536Z,41.59
2023-06-29T00:40:26.516Z,40.24
2023-06-29T00:41:26.481Z,41.22
2023-06-29T00:42:26.470Z,39.57
2023-06-29T00:43:27.476Z,57.94
2023-06-29T00:44:26.494Z,56.16
2023-06-29T00:45:26.471Z,54.37
2023-06-29T00:46:26.453Z,56.83
2023-06-29T00:47:26.500Z,61.66
2023-06-29T00:48:26.425Z,55.70
2023-06-29T00:49:26.449Z,55.56
2023-06-29T00:50:26.415Z,55.04
2023-06-29T00:51:26.419Z,60.70
2023-06-29T00:52:26.400Z,54.01
2023-06-29T00:53:26.390Z,53.57
2023-06-29T00:54:26.410Z,52.96
2023-06-29T00:55:26.378Z,56.48
2023-06-29T00:56:26.369Z,54.69
2023-06-29T00:57:26.367Z,55.75
2023-06-29T00:58:26.357Z,56.19
2023-06-29T00:59:26.367Z,53.21
2023-06-29T01:00:26.337Z,41.84
2023-06-29T01:01:26.362Z,39.85
2023-06-29T01:02:26.420Z,37.52
2023-06-29T01:03:26.443Z,36.40
2023-06-29T01:04:26.331Z,41.14
2023-06-29T01:05:26.311Z,40.77
2023-06-29T01:06:26.303Z,41.65
2023-06-29T01:07:26.328Z,42.35
2023-06-29T01:08:26.318Z,43.86
2023-06-29T01:09:26.285Z,46.72
2023-06-29T01:10:26.277Z,38.76
2023-06-29T01:11:26.305Z,36.54
2023-06-29T01:12:26.267Z,42.13
2023-06-29T01:13:26.288Z,39.20
2023-06-29T01:14:26.282Z,36.14
2023-06-29T01:15:26.229Z,36.21
2023-06-29T01:16:26.298Z,43.91
2023-06-29T01:17:26.255Z,43.72
2023-06-29T01:18:26.229Z,45.69
2023-06-29T01:19:26.211Z,37.88
2023-06-29T01:20:27.270Z,47.51
2023-06-29T01:21:26.189Z,36.89
2023-06-29T01:22:26.284Z,40.28
2023-06-29T01:23:26.241Z,43.11
2023-06-29T01:24:26.173Z,37.21
2023-06-29T01:25:58.965Z,44.11
2023-06-29T01:26:26.151Z,46.55
2023-06-29T01:27:26.177Z,41.35
2023-06-29T01:28:26.130Z,37.42
2023-06-29T01:29:26.194Z,54.05
2023-06-29T01:30:26.117Z,36.94
2023-06-29T01:31:26.119Z,43.92
2023-06-29T01:32:26.128Z,44.95
2023-06-29T01:33:26.104Z,37.31
2023-06-29T01:34:26.087Z,43.65
2023-06-29T01:35:26.077Z,39.88
2023-06-29T01:36:26.093Z,55.40
2023-06-29T01:37:26.093Z,37.92
2023-06-29T01:38:26.049Z,48.00
2023-06-29T01:39:26.047Z,43.33
2023-06-29T01:40:26.034Z,40.84
2023-06-29T01:41:26.055Z,39.97
2023-06-29T01:42:26.051Z,47.16
2023-06-29T01:43:26.013Z,53.81
2023-06-29T01:44:26.001Z,37.61
2023-06-29T01:45:26.001Z,43.37
2023-06-29T01:46:26.069Z,45.74
2023-06-29T01:47:26.014Z,37.44
2023-06-29T01:48:25.972Z,39.47
2023-06-29T01:49:26.006Z,39.50
2023-06-29T01:50:25.983Z,47.72
2023-06-29T01:51:25.987Z,40.63
2023-06-29T01:52:25.939Z,40.47
2023-06-29T01:53:25.945Z,51.27
2023-06-29T01:54:25.928Z,38.49
2023-06-29T01:55:25.948Z,41.80
2023-06-29T01:56:25.907Z,45.34
2023-06-29T01:57:25.906Z,42.67
2023-06-29T01:58:25.902Z,39.72
2023-06-29T01:59:25.897Z,40.08
2023-06-29T02:00:25.906Z,37.60
2023-06-29T02:01:25.908Z,47.35
2023-06-29T02:02:25.957Z,39.19
2023-06-29T02:03:25.903Z,43.71
2023-06-29T02:04:25.874Z,42.83
2023-06-29T02:05:25.865Z,48.67
2023-06-29T02:06:25.830Z,46.89
2023-06-29T02:07:25.849Z,44.06
2023-06-29T02:08:25.879Z,53.30
2023-06-29T02:09:25.834Z,43.18
2023-06-29T02:10:25.801Z,46.61
2023-06-29T02:11:25.796Z,54.11
2023-06-29T02:12:25.795Z,58.52
2023-06-29T02:13:25.787Z,49.81
2023-06-29T02:14:25.805Z,44.46
2023-06-29T02:15:25.777Z,47.71
2023-06-29T02:16:25.862Z,55.56
2023-06-29T02:17:25.770Z,48.37
2023-06-29T02:18:25.771Z,50.58
2023-06-29T02:19:25.759Z,47.12
2023-06-29T02:20:25.728Z,56.72
2023-06-29T02:21:25.719Z,57.68
2023-06-29T02:22:25.717Z,46.93
2023-06-29T02:23:25.738Z,58.24
2023-06-29T02:24:25.699Z,49.79
2023-06-29T02:25:25.688Z,47.83
2023-06-29T02:26:25.679Z,50.96
2023-06-29T02:27:25.677Z,56.63
2023-06-29T02:28:25.686Z,45.95
2023-06-29T02:29:25.672Z,44.24
2023-06-29T02:30:25.663Z,52.05
2023-06-29T02:31:25.727Z,58.29
2023-06-29T02:32:25.711Z,53.45
2023-06-29T02:33:25.683Z,49.15
2023-06-29T02:34:25.615Z,51.49
2023-06-29T02:35:26.612Z,50.11
2023-06-29T02:36:25.602Z,56.25
2023-06-29T02:37:25.630Z,46.47
2023-06-29T02:38:25.594Z,48.63
2023-06-29T02:39:25.585Z,56.28
2023-06-29T02:40:25.581Z,59.09
2023-06-29T02:41:25.609Z,54.44
2023-06-29T02:42:25.605Z,55.09
2023-06-29T02:43:25.557Z,58.72
2023-06-29T02:44:25.551Z,55.08
2023-06-29T02:45:25.544Z,56.49
2023-06-29T02:46:25.599Z,59.65
2023-06-29T02:47:25.564Z,61.54
2023-06-29T02:48:25.527Z,57.62
2023-06-29T02:49:25.515Z,57.81
2023-06-29T02:50:25.541Z,58.27
2023-06-29T02:51:25.523Z,58.22
2023-06-29T02:52:25.490Z,51.81
2023-06-29T02:53:25.478Z,51.44
2023-06-29T02:54:25.472Z,49.81
2023-06-29T02:55:25.472Z,49.26
2023-06-29T02:56:25.486Z,59.81
2023-06-29T02:57:25.451Z,49.89
2023-06-29T02:58:25.440Z,49.64
2023-06-29T02:59:25.436Z,57.35
2023-06-29T03:00:25.474Z,50.27
2023-06-29T03:01:25.487Z,42.51
2023-06-29T03:02:25.448Z,59.75
2023-06-29T03:03:25.487Z,52.19
2023-06-29T03:04:25.425Z,56.70
2023-06-29T03:05:25.417Z,58.10
2023-06-29T03:06:25.383Z,58.99
2023-06-29T03:07:25.409Z,54.11
2023-06-29T03:08:25.385Z,53.29
2023-06-29T03:09:25.360Z,56.53
2023-06-29T03:10:25.443Z,61.38
2023-06-29T03:11:25.350Z,57.35
2023-06-29T03:12:25.347Z,58.51
2023-06-29T03:13:25.355Z,58.12
2023-06-29T03:14:25.427Z,59.30
2023-06-29T03:15:25.341Z,58.93
2023-06-29T03:16:25.369Z,61.73
2023-06-29T03:17:25.297Z,58.61
2023-06-29T03:18:25.295Z,49.40
2023-06-29T03:19:25.321Z,60.02
2023-06-29T03:20:25.289Z,46.66
2023-06-29T03:21:25.266Z,54.52
2023-06-29T03:22:25.268Z,51.71
2023-06-29T03:23:25.253Z,54.98
2023-06-29T03:24:25.273Z,50.61
2023-06-29T03:25:25.247Z,49.81
2023-06-29T03:26:25.227Z,51.81
2023-06-29T03:27:25.231Z,52.46
2023-06-29T03:28:25.241Z,52.47
2023-06-29T03:29:25.232Z,52.32
2023-06-29T03:30:25.202Z,56.27
2023-06-29T03:31:25.298Z,54.28
2023-06-29T03:32:25.243Z,50.50
2023-06-29T03:33:25.205Z,57.68
2023-06-29T03:34:25.171Z,54.56
2023-06-29T03:35:25.164Z,56.39
2023-06-29T03:36:25.169Z,56.57
2023-06-29T03:37:25.148Z,53.31
2023-06-29T03:38:25.178Z,56.28
2023-06-29T03:39:25.137Z,57.09
2023-06-29T03:40:25.128Z,52.21
2023-06-29T03:41:25.117Z,59.22
2023-06-29T03:42:25.134Z,56.22
2023-06-29T03:43:25.153Z,54.90
2023-06-29T03:44:25.113Z,53.48
2023-06-29T03:45:25.121Z,51.87
2023-06-29T03:46:25.093Z,57.70
2023-06-29T03:47:25.152Z,55.69
2023-06-29T03:48:25.147Z,53.67
2023-06-29T03:49:25.056Z,57.59
2023-06-29T03:50:25.054Z,54.09
2023-06-29T03:51:25.037Z,60.67
2023-06-29T03:52:26.058Z,57.69
2023-06-29T03:53:25.029Z,52.42
2023-06-29T03:54:25.030Z,61.91
2023-06-29T03:55:25.016Z,55.04
2023-06-29T03:56:25.029Z,47.99
2023-06-29T03:57:25.023Z,53.19
2023-06-29T03:58:24.994Z,56.05
2023-06-29T03:59:24.983Z,57.94
2023-06-29T04:00:25.848Z,54.47
2023-06-29T04:01:25.017Z,56.38
2023-06-29T04:02:25.061Z,51.56
2023-06-29T04:03:25.040Z,52.52
2023-06-29T04:04:24.955Z,60.81
2023-06-29T04:05:24.959Z,59.62
2023-06-29T04:06:24.961Z,54.26
2023-06-29T04:07:25.011Z,54.69
2023-06-29T04:08:24.928Z,59.08
2023-06-29T04:09:24.907Z,51.76
2023-06-29T04:10:24.938Z,55.26
2023-06-29T04:11:24.911Z,58.87
2023-06-29T04:12:24.900Z,56.19
2023-06-29T04:13:24.880Z,58.25
2023-06-29T04:14:24.885Z,59.88
2023-06-29T04:15:24.884Z,58.69
2023-06-29T04:16:24.896Z,58.86
2023-06-29T04:17:24.857Z,59.13
2023-06-29T04:18:24.843Z,58.89
2023-06-29T04:19:24.875Z,59.38
2023-06-29T04:20:24.907Z,58.27
2023-06-29T04:21:24.813Z,59.41
2023-06-29T04:22:24.803Z,59.65
2023-06-29T04:23:24.793Z,58.85
2023-06-29T04:24:24.837Z,59.35
2023-06-29T04:25:24.816Z,60.65
2023-06-29T04:26:24.787Z,59.30
2023-06-29T04:27:24.773Z,54.68
2023-06-29T04:28:24.764Z,55.32
2023-06-29T04:29:24.776Z,54.10
2023-06-29T04:30:24.765Z,51.07
2023-06-29T04:31:24.750Z,56.71
2023-06-29T04:32:24.806Z,61.81
2023-06-29T04:33:24.730Z,57.05
2023-06-29T04:34:24.743Z,53.98
2023-06-29T04:35:24.718Z,57.26
2023-06-29T04:36:24.700Z,58.89
2023-06-29T04:37:24.689Z,55.88
2023-06-29T04:38:24.742Z,55.98
2023-06-29T04:39:24.698Z,53.89
2023-06-29T04:40:24.677Z,60.04
2023-06-29T04:41:24.655Z,55.28
2023-06-29T04:42:24.656Z,53.26
2023-06-29T04:43:24.670Z,55.38
2023-06-29T04:44:24.637Z,50.61
2023-06-29T04:45:24.628Z,56.00
2023-06-29T04:46:24.644Z,52.57
2023-06-29T04:47:24.617Z,55.44
2023-06-29T04:48:24.633Z,53.86
2023-06-29T04:49:24.597Z,51.67
2023-06-29T04:50:24.591Z,57.18
2023-06-29T04:51:24.605Z,60.14
2023-06-29T04:52:24.602Z,54.49
2023-06-29T04:53:24.610Z,58.20
2023-06-29T04:54:24.572Z,50.96
2023-06-29T04:55:24.553Z,55.34
2023-06-29T04:56:24.543Z,58.74
2023-06-29T04:57:25.823Z,51.43
2023-06-29T04:58:24.541Z,59.14
2023-06-29T04:59:24.531Z,55.80
2023-06-29T05:00:24.518Z,54.84
2023-06-29T05:01:24.623Z,57.88
2023-06-29T05:02:24.550Z,57.47
2023-06-29T05:03:24.591Z,55.10
2023-06-29T05:04:24.487Z,50.96
2023-06-29T05:05:24.477Z,60.72
2023-06-29T05:06:24.470Z,55.91
2023-06-29T05:07:24.546Z,55.42
2023-06-29T05:08:24.456Z,59.14
2023-06-29T05:09:24.458Z,56.05
2023-06-29T05:10:24.468Z,53.57
2023-06-29T05:11:24.460Z,55.35
2023-06-29T05:12:24.475Z,59.83
2023-06-29T05:13:24.415Z,53.98
2023-06-29T05:14:24.421Z,54.53
2023-06-29T05:15:24.467Z,60.57
2023-06-29T05:16:24.550Z,55.17
2023-06-29T05:17:24.439Z,55.78
2023-06-29T05:18:24.414Z,54.10
2023-06-29T05:19:24.377Z,56.05
2023-06-29T05:20:24.363Z,54.75
2023-06-29T05:21:24.390Z,54.23
2023-06-29T05:22:24.379Z,57.68
2023-06-29T05:23:24.376Z,51.06
2023-06-29T05:24:24.334Z,52.49
2023-06-29T05:25:24.373Z,57.63
2023-06-29T05:26:24.354Z,54.10
2023-06-29T05:27:24.313Z,56.26
2023-06-29T05:28:24.314Z,59.15
2023-06-29T05:29:24.302Z,54.68
2023-06-29T05:30:24.323Z,55.90
2023-06-29T05:31:24.321Z,53.42
2023-06-29T05:32:24.292Z,56.45
2023-06-29T05:33:24.278Z,56.32
2023-06-29T05:34:24.274Z,55.17
2023-06-29T05:35:24.287Z,57.32
2023-06-29T05:36:24.265Z,55.35
2023-06-29T05:37:24.239Z,56.36
2023-06-29T05:38:24.256Z,55.24
2023-06-29T05:39:24.225Z,56.32
2023-06-29T05:40:24.250Z,54.03
2023-06-29T05:41:24.200Z,52.55
2023-06-29T05:42:24.195Z,57.55
2023-06-29T05:43:24.222Z,57.23
2023-06-29T05:44:24.183Z,56.05
2023-06-29T05:45:24.203Z,55.45
2023-06-29T05:46:24.198Z,56.34
2023-06-29T05:47:24.168Z,56.90
2023-06-29T05:48:24.151Z,57.31
2023-06-29T05:49:24.191Z,53.27
2023-06-29T05:50:24.175Z,53.97
2023-06-29T05:51:24.126Z,55.31
2023-06-29T05:52:24.128Z,57.43
2023-06-29T05:53:24.147Z,54.25
2023-06-29T05:54:24.142Z,54.07
2023-06-29T05:55:24.105Z,56.92
2023-06-29T05:56:24.108Z,57.91
2023-06-29T05:57:24.090Z,50.95
2023-06-29T05:58:24.108Z,54.52
2023-06-29T05:59:24.111Z,56.91
2023-06-29T06:00:24.069Z,52.38
2023-06-29T06:01:24.089Z,49.66
2023-06-29T06:02:24.074Z,51.92
2023-06-29T06:03:24.215Z,48.71
2023-06-29T06:04:24.066Z,48.65
2023-06-29T06:05:24.034Z,52.81
2023-06-29T06:06:24.025Z,52.53
2023-06-29T06:07:24.029Z,51.95
2023-06-29T06:08:24.040Z,52.54
2023-06-29T06:09:24.002Z,56.78
2023-06-29T06:10:23.993Z,54.71
2023-06-29T06:11:23.982Z,56.61
2023-06-29T06:12:24.015Z,51.66
2023-06-29T06:13:23.994Z,51.87
2023-06-29T06:14:23.968Z,50.53
2023-06-29T06:15:23.989Z,54.76
2023-06-29T06:16:23.993Z,51.87
2023-06-29T06:17:23.996Z,53.90
2023-06-29T06:18:23.936Z,52.10
2023-06-29T06:19:23.938Z,55.97
2023-06-29T06:20:23.944Z,56.80
2023-06-29T06:21:23.911Z,54.85
2023-06-29T06:22:23.935Z,53.29
2023-06-29T06:23:23.896Z,52.24
2023-06-29T06:24:23.892Z,55.09
2023-06-29T06:25:23.927Z,54.32
2023-06-29T06:26:23.907Z,51.79
2023-06-29T06:27:23.927Z,52.48
2023-06-29T06:28:23.932Z,51.04
2023-06-29T06:29:23.851Z,55.63
2023-06-29T06:30:23.844Z,51.93
2023-06-29T06:31:33.373Z,55.30
2023-06-29T06:32:25.856Z,51.21
2023-06-29T06:33:23.847Z,51.97
2023-06-29T06:34:23.815Z,53.29
2023-06-29T06:35:23.805Z,50.62
2023-06-29T06:36:23.831Z,55.28
2023-06-29T06:37:23.792Z,54.76
2023-06-29T06:38:25.836Z,50.85
2023-06-29T06:39:24.783Z,56.10
2023-06-29T06:40:23.776Z,59.19
2023-06-29T06:41:23.786Z,53.27
2023-06-29T06:42:23.752Z,53.10
2023-06-29T06:43:23.753Z,54.14
2023-06-29T06:44:23.748Z,52.01
2023-06-29T06:45:23.761Z,52.48
2023-06-29T06:46:23.786Z,55.24
2023-06-29T06:47:23.739Z,51.94
2023-06-29T06:48:23.711Z,53.68
2023-06-29T06:49:23.741Z,54.49
2023-06-29T06:50:23.745Z,53.48
2023-06-29T06:51:23.686Z,51.39
2023-06-29T06:52:23.682Z,51.78
2023-06-29T06:53:23.673Z,52.61
2023-06-29T06:54:23.669Z,52.75
2023-06-29T06:55:23.682Z,54.73
2023-06-29T06:56:23.691Z,57.25
2023-06-29T06:57:23.642Z,44.68
2023-06-29T06:58:23.627Z,55.29
2023-06-29T06:59:23.653Z,55.80
2023-06-29T07:00:23.652Z,52.95
2023-06-29T07:01:23.839Z,49.50
2023-06-29T07:02:23.702Z,53.74
2023-06-29T07:03:23.647Z,48.98
2023-06-29T07:04:23.644Z,56.52
2023-06-29T07:05:23.595Z,50.89
2023-06-29T07:06:23.580Z,52.88
2023-06-29T07:07:23.789Z,52.78
2023-06-29T07:08:23.570Z,53.09
2023-06-29T07:09:23.592Z,53.41
2023-06-29T07:10:23.550Z,55.38
2023-06-29T07:11:23.537Z,52.39
2023-06-29T07:12:23.534Z,54.17
2023-06-29T07:13:23.567Z,54.64
2023-06-29T07:14:23.585Z,53.19
2023-06-29T07:15:23.503Z,49.12
2023-06-29T07:16:23.537Z,52.72
2023-06-29T07:17:23.521Z,52.16
2023-06-29T07:18:23.531Z,52.50
2023-06-29T07:21:26.187Z,55.21
2023-06-29T07:24:24.444Z,54.36
2023-06-29T07:25:56.033Z,53.06
2023-06-29T07:26:23.426Z,54.88
2023-06-29T07:27:23.421Z,53.68
2023-06-29T07:28:23.466Z,55.01
2023-06-29T07:29:23.408Z,53.19
2023-06-29T07:30:23.420Z,53.76
2023-06-29T07:31:23.416Z,56.01
2023-06-29T07:32:23.465Z,55.73
2023-06-29T07:33:23.445Z,53.95
2023-06-29T07:34:23.364Z,50.77
2023-06-29T07:35:23.368Z,53.66
2023-06-29T07:36:23.349Z,53.51
2023-06-29T07:37:23.371Z,55.17
2023-06-29T07:38:23.338Z,54.24
2023-06-29T07:39:23.349Z,52.84
2023-06-29T07:40:23.377Z,54.04
2023-06-29T07:41:23.319Z,54.50
2023-06-29T07:42:38.076Z,57.67
2023-06-29T07:43:25.301Z,56.85
2023-06-29T07:44:23.290Z,53.89
2023-06-29T07:45:23.284Z,49.99
2023-06-29T07:46:23.302Z,52.34
2023-06-29T07:47:23.391Z,50.84
2023-06-29T07:48:23.429Z,52.06
2023-06-29T07:49:23.264Z,55.84
2023-06-29T07:50:23.352Z,51.84
2023-06-29T07:51:23.260Z,51.41
2023-06-29T07:52:23.223Z,52.81
2023-06-29T07:53:23.227Z,50.55
2023-06-29T07:54:23.212Z,53.36
2023-06-29T07:55:23.322Z,53.60
2023-06-29T07:56:23.550Z,52.41
2023-06-29T07:59:24.204Z,51.39
2023-06-29T08:00:23.268Z,55.54
2023-06-29T08:01:23.221Z,57.68
2023-06-29T08:02:23.199Z,52.16
2023-06-29T08:03:23.143Z,52.99
2023-06-29T08:07:24.199Z,51.52
2023-06-29T08:08:23.238Z,52.35
2023-06-29T08:09:23.105Z,49.77
2023-06-29T08:10:23.131Z,58.83
2023-06-29T08:11:23.157Z,55.00
2023-06-29T08:12:23.088Z,57.20
2023-06-29T08:13:23.074Z,57.97
2023-06-29T08:14:23.118Z,52.68
2023-06-29T08:15:23.084Z,53.57
2023-06-29T08:16:23.144Z,53.65
2023-06-29T08:17:23.067Z,49.70
2023-06-29T08:18:23.056Z,54.45
2023-06-29T08:19:23.109Z,53.51
2023-06-29T08:20:23.043Z,53.27
2023-06-29T08:21:23.066Z,55.35
2023-06-29T08:22:23.020Z,53.32
2023-06-29T08:23:23.013Z,52.20
2023-06-29T08:24:23.041Z,56.26
2023-06-29T08:25:22.987Z,52.68
2023-06-29T08:26:23.021Z,55.34
2023-06-29T08:27:22.973Z,51.89
2023-06-29T08:28:22.978Z,51.62
2023-06-29T08:29:23.982Z,55.45
2023-06-29T08:30:23.033Z,54.11
2023-06-29T08:31:22.988Z,61.45
2023-06-29T08:32:23.047Z,50.77
2023-06-29T08:33:23.085Z,53.37
2023-06-29T08:34:22.917Z,52.51
2023-06-29T08:35:22.912Z,53.59
2023-06-29T08:36:22.907Z,48.46
2023-06-29T08:37:22.891Z,49.30
2023-06-29T08:38:22.929Z,52.48
2023-06-29T08:39:22.938Z,52.55
2023-06-29T08:40:22.938Z,53.65
2023-06-29T08:41:22.867Z,53.59
2023-06-29T08:42:22.887Z,51.62
2023-06-29T08:43:22.888Z,52.95
2023-06-29T08:44:22.849Z,54.54
2023-06-29T08:45:22.838Z,52.08
2023-06-29T08:46:22.865Z,50.37
2023-06-29T08:47:22.909Z,54.82
2023-06-29T08:48:22.817Z,50.28
2023-06-29T08:49:22.810Z,51.33
2023-06-29T08:50:22.868Z,48.21
2023-06-29T08:51:22.788Z,51.93
2023-06-29T08:52:22.809Z,52.69
2023-06-29T08:53:22.846Z,54.75
2023-06-29T08:54:22.766Z,53.95
2023-06-29T08:55:22.758Z,50.40
2023-06-29T08:56:22.805Z,50.96
2023-06-29T08:57:22.772Z,51.81
2023-06-29T08:58:22.743Z,51.07
2023-06-29T08:59:22.736Z,52.09
2023-06-29T09:00:22.785Z,51.77
2023-06-29T09:01:22.805Z,52.96
2023-06-29T09:02:22.783Z,54.10
2023-06-29T09:03:22.849Z,52.29
2023-06-29T09:04:22.697Z,50.34
2023-06-29T09:05:22.694Z,58.11
2023-06-29T09:06:22.700Z,52.93
2023-06-29T09:07:22.693Z,56.43
2023-06-29T09:08:22.703Z,56.18
2023-06-29T09:09:22.656Z,51.82
2023-06-29T09:10:22.787Z,48.88
2023-06-29T09:11:22.670Z,50.98
2023-06-29T09:12:22.632Z,51.18
2023-06-29T09:13:22.620Z,51.76
2023-06-29T09:14:22.624Z,53.59
2023-06-29T09:15:22.816Z,58.89
2023-06-29T09:16:22.744Z,53.53
2023-06-29T09:17:22.620Z,50.72
2023-06-29T09:18:22.584Z,54.91
2023-06-29T09:19:22.583Z,56.35
2023-06-29T09:20:22.601Z,52.02
2023-06-29T09:21:22.568Z,49.11
2023-06-29T09:22:22.567Z,58.23
2023-06-29T09:23:22.557Z,50.81
2023-06-29T09:24:22.549Z,53.65
2023-06-29T09:26:23.556Z,57.92
2023-06-29T09:27:22.528Z,55.44
2023-06-29T09:28:22.512Z,52.62
2023-06-29T09:29:22.542Z,49.92
2023-06-29T09:30:22.532Z,52.73
2023-06-29T09:31:22.560Z,49.52
2023-06-29T09:32:22.515Z,50.41
2023-06-29T09:33:22.493Z,54.94
2023-06-29T09:34:22.533Z,52.89
2023-06-29T09:35:22.479Z,55.34
2023-06-29T09:36:22.471Z,51.85
2023-06-29T09:37:22.455Z,49.12
2023-06-29T09:38:22.453Z,52.42
2023-06-29T09:39:22.459Z,54.06
2023-06-29T09:40:22.425Z,49.63
2023-06-29T09:41:22.422Z,52.30
2023-06-29T09:42:22.451Z,44.07
2023-06-29T09:43:23.093Z,55.17
2023-06-29T09:44:22.432Z,51.75
2023-06-29T09:45:22.404Z,52.28
2023-06-29T09:46:22.425Z,58.03
2023-06-29T09:49:23.501Z,54.11
2023-06-29T09:50:22.518Z,48.63
2023-06-29T09:51:22.495Z,53.35
2023-06-29T09:52:22.422Z,50.97
2023-06-29T09:53:22.363Z,57.02
2023-06-29T09:54:22.347Z,55.36
2023-06-29T09:55:22.321Z,51.32
2023-06-29T09:56:23.007Z,47.80
2023-06-29T09:57:22.290Z,51.80
2023-06-29T09:58:22.320Z,52.52
2023-06-29T09:59:22.305Z,51.47
2023-06-29T10:00:22.286Z,52.89
2023-06-29T10:01:22.311Z,58.76
2023-06-29T10:02:22.380Z,55.95
2023-06-29T10:03:22.328Z,51.55
2023-06-29T10:04:22.266Z,51.75
2023-06-29T10:05:22.246Z,49.72
2023-06-29T10:06:22.258Z,52.91
2023-06-29T10:07:22.404Z,51.33
2023-06-29T10:08:22.269Z,52.88
2023-06-29T10:09:22.252Z,53.99
2023-06-29T10:10:22.218Z,51.62
2023-06-29T10:11:22.198Z,51.39
2023-06-29T10:12:22.248Z,54.53
2023-06-29T10:13:22.205Z,50.18
2023-06-29T10:14:22.190Z,50.07
2023-06-29T10:15:22.172Z,52.16
2023-06-29T10:16:22.186Z,51.24
2023-06-29T10:17:22.221Z,55.03
2023-06-29T10:18:22.168Z,53.10
2023-06-29T10:19:22.174Z,55.13
2023-06-29T10:20:22.138Z,54.00
2023-06-29T10:21:22.226Z,51.61
2023-06-29T10:22:22.157Z,51.53
2023-06-29T10:23:23.548Z,56.85
2023-06-29T10:24:22.109Z,49.67
2023-06-29T10:25:22.101Z,48.88
2023-06-29T10:26:22.125Z,49.31
2023-06-29T10:27:22.089Z,52.27
2023-06-29T10:28:22.083Z,49.95
2023-06-29T10:29:23.288Z,53.17
2023-06-29T10:30:22.065Z,49.98
2023-06-29T10:31:22.112Z,51.41
2023-06-29T10:32:22.057Z,53.44
2023-06-29T10:33:22.043Z,53.32
2023-06-29T10:34:22.034Z,53.13
2023-06-29T10:35:23.509Z,51.28
2023-06-29T10:36:22.130Z,52.89
2023-06-29T10:37:22.014Z,53.70
2023-06-29T10:38:22.005Z,54.97
2023-06-29T10:39:22.008Z,50.73
2023-06-29T10:40:22.044Z,53.22
2023-06-29T10:41:21.991Z,55.70
2023-06-29T10:42:21.974Z,54.04
2023-06-29T10:43:21.970Z,54.16
2023-06-29T10:44:21.957Z,53.15
2023-06-29T10:45:21.993Z,55.73
2023-06-29T10:46:21.996Z,54.30
2023-06-29T10:47:21.956Z,53.98
2023-06-29T10:48:38.483Z,50.37
2023-06-29T10:49:23.969Z,50.94
2023-06-29T10:50:21.948Z,49.73
2023-06-29T10:51:21.965Z,52.01
2023-06-29T10:52:21.903Z,53.84
2023-06-29T10:53:21.895Z,51.72
2023-06-29T10:54:21.935Z,51.74
2023-06-29T10:55:21.901Z,54.36
2023-06-29T10:56:21.872Z,52.53
2023-06-29T10:57:21.877Z,55.35
2023-06-29T10:58:21.867Z,53.90
2023-06-29T10:59:21.902Z,52.74
2023-06-29T11:00:21.858Z,51.00
2023-06-29T11:01:21.879Z,55.77
2023-06-29T11:02:21.853Z,52.21
2023-06-29T11:03:21.868Z,47.40
2023-06-29T11:04:21.983Z,50.18
2023-06-29T11:05:21.837Z,52.91
2023-06-29T11:06:33.486Z,52.03
2023-06-29T11:07:23.906Z,49.69
2023-06-29T11:08:21.840Z,51.22
2023-06-29T11:09:21.820Z,51.02
2023-06-29T11:10:21.793Z,53.93
2023-06-29T11:11:21.761Z,52.27
2023-06-29T11:12:21.757Z,55.42
2023-06-29T11:13:21.771Z,54.21
2023-06-29T11:14:21.742Z,51.78
2023-06-29T11:15:21.737Z,51.22
2023-06-29T11:16:21.774Z,54.20
2023-06-29T11:17:21.771Z,51.41
2023-06-29T11:18:21.744Z,54.17
2023-06-29T11:19:22.712Z,52.23
2023-06-29T11:20:21.701Z,50.20
2023-06-29T11:21:21.699Z,51.19
2023-06-29T11:22:21.726Z,52.41
2023-06-29T11:23:21.675Z,52.32
2023-06-29T11:24:21.678Z,51.71
2023-06-29T11:25:21.681Z,53.34
2023-06-29T11:26:21.675Z,54.07
2023-06-29T11:27:21.669Z,52.62
2023-06-29T11:28:21.643Z,52.15
2023-06-29T11:29:21.641Z,55.74
2023-06-29T11:30:21.628Z,50.70
2023-06-29T11:31:21.644Z,53.99
2023-06-29T11:32:21.706Z,48.35
2023-06-29T11:33:33.804Z,51.84
2023-06-29T11:34:23.593Z,55.82
2023-06-29T11:35:21.592Z,54.61
2023-06-29T11:36:21.655Z,52.22
2023-06-29T11:38:21.570Z,53.65
2023-06-29T11:39:22.603Z,53.19
2023-06-29T11:40:21.560Z,53.30
2023-06-29T11:41:21.570Z,54.58
2023-06-29T11:42:21.571Z,55.07
2023-06-29T11:44:22.533Z,52.18
2023-06-29T11:45:21.543Z,54.28
2023-06-29T11:46:21.579Z,54.46
2023-06-29T11:48:22.590Z,52.58
2023-06-29T11:49:22.963Z,53.40
2023-06-29T11:50:22.549Z,49.76
2023-06-29T11:51:21.500Z,52.19
2023-06-29T11:52:21.465Z,50.18
2023-06-29T11:53:21.466Z,52.10
2023-06-29T11:54:21.459Z,58.45
2023-06-29T11:55:23.666Z,53.66
2023-06-29T11:56:22.440Z,52.80
2023-06-29T11:57:21.430Z,50.88
2023-06-29T11:58:21.424Z,52.09
2023-06-29T11:59:21.447Z,50.79
2023-06-29T12:00:21.503Z,51.98
2023-06-29T12:01:22.723Z,54.15
2023-06-29T12:02:21.424Z,51.84
2023-06-29T12:03:21.440Z,52.51
2023-06-29T12:04:21.451Z,50.03
2023-06-29T12:05:21.413Z,55.03
2023-06-29T12:06:21.373Z,55.87
2023-06-29T12:07:21.419Z,51.43
2023-06-29T12:08:21.666Z,53.36
2023-06-29T12:09:21.401Z,49.04
2023-06-29T12:10:21.333Z,52.82
2023-06-29T12:11:22.936Z,51.73
2023-06-29T12:12:22.181Z,53.73
2023-06-29T12:13:21.338Z,53.34
2023-06-29T12:14:21.323Z,52.36
2023-06-29T12:15:21.296Z,55.18
2023-06-29T12:18:22.545Z,51.08
2023-06-29T12:19:21.541Z,55.14
2023-06-29T12:20:21.782Z,50.95
2023-06-29T12:21:21.476Z,51.24
2023-06-29T12:22:21.245Z,56.94
2023-06-29T12:23:21.255Z,55.33
2023-06-29T12:24:21.260Z,51.64
2023-06-29T12:25:21.237Z,49.49
2023-06-29T12:26:21.223Z,53.61
2023-06-29T12:27:21.247Z,57.01
2023-06-29T12:28:21.280Z,51.62
2023-06-29T12:29:21.278Z,54.36
2023-06-29T12:30:21.312Z,54.57
2023-06-29T12:31:21.297Z,53.11
2023-06-29T12:32:21.313Z,52.17
2023-06-29T12:33:21.210Z,52.69
2023-06-29T12:34:21.247Z,53.21
2023-06-29T12:35:21.156Z,55.29
2023-06-29T12:36:21.147Z,51.13
2023-06-29T12:37:21.171Z,54.93
2023-06-29T12:38:21.142Z,56.38
2023-06-29T12:39:21.127Z,53.85
2023-06-29T12:40:21.121Z,50.38
2023-06-29T12:41:21.170Z,54.31
2023-06-29T12:42:21.096Z,54.03
2023-06-29T12:43:21.104Z,53.32
2023-06-29T12:44:21.084Z,56.80
2023-06-29T12:45:21.093Z,53.59
2023-06-29T12:46:21.097Z,53.28
2023-06-29T12:47:21.103Z,53.39
2023-06-29T12:48:21.095Z,55.46
2023-06-29T12:49:21.056Z,53.68
2023-06-29T12:50:21.090Z,53.25
2023-06-29T12:51:21.065Z,54.22
2023-06-29T12:52:21.022Z,55.96
2023-06-29T12:53:21.035Z,54.35
2023-06-29T12:54:21.009Z,52.65
2023-06-29T12:55:21.046Z,55.37
2023-06-29T12:56:21.010Z,55.82
2023-06-29T12:57:21.007Z,52.20
2023-06-29T12:58:20.985Z,54.50
2023-06-29T12:59:20.980Z,53.76
2023-06-29T13:00:20.985Z,56.31
2023-06-29T13:01:21.006Z,54.43
2023-06-29T13:02:21.002Z,52.13
2023-06-29T13:03:21.162Z,53.76
2023-06-29T13:04:21.176Z,51.97
2023-06-29T13:05:20.962Z,55.43
2023-06-29T13:06:20.917Z,52.00
2023-06-29T13:07:21.986Z,53.63
2023-06-29T13:08:20.909Z,52.60
2023-06-29T13:09:20.937Z,55.02